sensor_id;sensor_type;location;lat;lon;timestamp;P1;durP1;ratioP1;P2;durP2;ratioP2
56810;SDS011;42691;47.234;27.494;2022-09-09T00:02:11;7.05;;;5.85;;
56810;SDS011;42691;47.234;27.494;2022-09-09T00:04:40;7.07;;;4.30;;
56810;SDS011;42691;47.234;27.494;2022-09-09T00:21:16;12.05;;;5.22;;
56810;SDS011;42691;47.234;27.494;2022-09-09T00:23:50;5.10;;;3.85;;
56810;SDS011;42691;47.234;27.494;2022-09-09T00:31:40;6.70;;;5.00;;
56810;SDS011;42691;47.234;27.494;2022-09-09T00:36:39;10.30;;;5.28;;
56810;SDS011;42691;47.234;27.494;2022-09-09T00:39:08;6.35;;;4.43;;
56810;SDS011;42691;47.234;27.494;2022-09-09T00:41:55;6.75;;;4.72;;
56810;SDS011;42691;47.234;27.494;2022-09-09T00:45:46;11.60;;;5.60;;
56810;SDS011;42691;47.234;27.494;2022-09-09T00:48:07;10.07;;;5.53;;
56810;SDS011;42691;47.234;27.494;2022-09-09T00:53:35;7.25;;;4.50;;
56810;SDS011;42691;47.234;27.494;2022-09-09T00:56:19;7.00;;;3.92;;
56810;SDS011;42691;47.234;27.494;2022-09-09T00:59:00;7.75;;;5.00;;
56810;SDS011;42691;47.234;27.494;2022-09-09T01:01:50;10.10;;;5.55;;
56810;SDS011;42691;47.234;27.494;2022-09-09T01:04:20;7.85;;;6.07;;
56810;SDS011;42691;47.234;27.494;2022-09-09T01:07:02;26.88;;;6.53;;
56810;SDS011;42691;47.234;27.494;2022-09-09T01:12:28;11.75;;;6.35;;
56810;SDS011;42691;47.234;27.494;2022-09-09T01:17:39;10.18;;;5.47;;
56810;SDS011;42691;47.234;27.494;2022-09-09T01:25:19;7.07;;;5.30;;
56810;SDS011;42691;47.234;27.494;2022-09-09T01:27:46;10.80;;;5.80;;
56810;SDS011;42691;47.234;27.494;2022-09-09T01:30:15;8.65;;;5.25;;
56810;SDS011;42691;47.234;27.494;2022-09-09T01:35:19;11.32;;;6.13;;
56810;SDS011;42691;47.234;27.494;2022-09-09T01:37:48;19.67;;;7.72;;
56810;SDS011;42691;47.234;27.494;2022-09-09T01:40:13;8.55;;;5.32;;
56810;SDS011;42691;47.234;27.494;2022-09-09T01:42:39;8.48;;;5.35;;
56810;SDS011;42691;47.234;27.494;2022-09-09T01:45:04;8.75;;;6.70;;
56810;SDS011;42691;47.234;27.494;2022-09-09T01:47:30;12.35;;;7.43;;
56810;SDS011;42691;47.234;27.494;2022-09-09T01:49:56;11.18;;;6.38;;
56810;SDS011;42691;47.234;27.494;2022-09-09T01:52:21;18.88;;;7.95;;
56810;SDS011;42691;47.234;27.494;2022-09-09T01:54:47;19.08;;;6.95;;
56810;SDS011;42691;47.234;27.494;2022-09-09T02:00:06;11.07;;;5.85;;
56810;SDS011;42691;47.234;27.494;2022-09-09T02:13:41;10.35;;;6.28;;
56810;SDS011;42691;47.234;27.494;2022-09-09T02:16:21;11.23;;;6.00;;
56810;SDS011;42691;47.234;27.494;2022-09-09T02:19:02;9.20;;;4.28;;
56810;SDS011;42691;47.234;27.494;2022-09-09T02:21:42;9.18;;;6.18;;
56810;SDS011;42691;47.234;27.494;2022-09-09T02:24:10;10.00;;;5.75;;
56810;SDS011;42691;47.234;27.494;2022-09-09T02:26:40;17.25;;;7.35;;
56810;SDS011;42691;47.234;27.494;2022-09-09T02:29:11;9.85;;;5.53;;
56810;SDS011;42691;47.234;27.494;2022-09-09T02:31:39;9.05;;;5.97;;
56810;SDS011;42691;47.234;27.494;2022-09-09T02:34:07;13.77;;;6.93;;
56810;SDS011;42691;47.234;27.494;2022-09-09T02:36:36;8.10;;;6.07;;
56810;SDS011;42691;47.234;27.494;2022-09-09T02:39:06;11.98;;;6.90;;
56810;SDS011;42691;47.234;27.494;2022-09-09T02:41:34;9.57;;;6.15;;
56810;SDS011;42691;47.234;27.494;2022-09-09T02:44:05;11.52;;;7.38;;
56810;SDS011;42691;47.234;27.494;2022-09-09T02:49:12;14.45;;;7.55;;
56810;SDS011;42691;47.234;27.494;2022-09-09T02:51:54;8.88;;;5.40;;
56810;SDS011;42691;47.234;27.494;2022-09-09T02:54:28;27.52;;;7.35;;
56810;SDS011;42691;47.234;27.494;2022-09-09T02:56:56;9.82;;;6.80;;
56810;SDS011;42691;47.234;27.494;2022-09-09T02:59:43;9.52;;;5.53;;
56810;SDS011;42691;47.234;27.494;2022-09-09T03:02:10;9.05;;;6.28;;
56810;SDS011;42691;47.234;27.494;2022-09-09T03:04:36;9.95;;;6.97;;
56810;SDS011;42691;47.234;27.494;2022-09-09T03:07:03;12.52;;;6.80;;
56810;SDS011;42691;47.234;27.494;2022-09-09T03:09:29;11.45;;;6.13;;
56810;SDS011;42691;47.234;27.494;2022-09-09T03:11:55;11.57;;;7.75;;
56810;SDS011;42691;47.234;27.494;2022-09-09T03:14:20;14.95;;;6.35;;
56810;SDS011;42691;47.234;27.494;2022-09-09T03:16:49;10.50;;;5.57;;
56810;SDS011;42691;47.234;27.494;2022-09-09T03:19:16;12.07;;;6.53;;
56810;SDS011;42691;47.234;27.494;2022-09-09T03:21:42;11.50;;;6.65;;
56810;SDS011;42691;47.234;27.494;2022-09-09T03:24:07;14.75;;;8.73;;
56810;SDS011;42691;47.234;27.494;2022-09-09T03:26:32;15.32;;;9.48;;
56810;SDS011;42691;47.234;27.494;2022-09-09T03:28:58;15.00;;;8.82;;
56810;SDS011;42691;47.234;27.494;2022-09-09T03:31:25;14.65;;;8.23;;
56810;SDS011;42691;47.234;27.494;2022-09-09T03:33:55;14.27;;;9.18;;
56810;SDS011;42691;47.234;27.494;2022-09-09T03:36:21;29.60;;;22.08;;
56810;SDS011;42691;47.234;27.494;2022-09-09T03:38:46;60.08;;;44.22;;
56810;SDS011;42691;47.234;27.494;2022-09-09T03:41:11;93.97;;;74.18;;
56810;SDS011;42691;47.234;27.494;2022-09-09T03:43:37;90.55;;;65.95;;
56810;SDS011;42691;47.234;27.494;2022-09-09T03:46:03;45.85;;;33.80;;
56810;SDS011;42691;47.234;27.494;2022-09-09T03:48:28;22.48;;;16.98;;
56810;SDS011;42691;47.234;27.494;2022-09-09T03:50:54;20.00;;;13.02;;
56810;SDS011;42691;47.234;27.494;2022-09-09T03:53:23;18.38;;;10.93;;
56810;SDS011;42691;47.234;27.494;2022-09-09T03:55:50;18.80;;;12.68;;
56810;SDS011;42691;47.234;27.494;2022-09-09T03:58:20;11.95;;;8.90;;
56810;SDS011;42691;47.234;27.494;2022-09-09T04:03:39;11.95;;;8.18;;
56810;SDS011;42691;47.234;27.494;2022-09-09T04:06:07;14.00;;;7.13;;
56810;SDS011;42691;47.234;27.494;2022-09-09T04:08:34;15.43;;;8.23;;
56810;SDS011;42691;47.234;27.494;2022-09-09T04:11:01;12.07;;;7.78;;
56810;SDS011;42691;47.234;27.494;2022-09-09T04:13:29;10.68;;;5.95;;
56810;SDS011;42691;47.234;27.494;2022-09-09T04:15:56;13.15;;;8.13;;
56810;SDS011;42691;47.234;27.494;2022-09-09T04:18:23;12.15;;;7.28;;
56810;SDS011;42691;47.234;27.494;2022-09-09T04:20:50;10.70;;;7.50;;
56810;SDS011;42691;47.234;27.494;2022-09-09T04:23:17;11.68;;;6.93;;
56810;SDS011;42691;47.234;27.494;2022-09-09T04:25:47;17.90;;;7.15;;
56810;SDS011;42691;47.234;27.494;2022-09-09T04:28:14;17.20;;;9.57;;
56810;SDS011;42691;47.234;27.494;2022-09-09T04:30:43;33.08;;;18.77;;
56810;SDS011;42691;47.234;27.494;2022-09-09T04:33:09;27.38;;;16.23;;
56810;SDS011;42691;47.234;27.494;2022-09-09T04:35:36;23.65;;;11.98;;
56810;SDS011;42691;47.234;27.494;2022-09-09T04:38:03;12.57;;;7.93;;
56810;SDS011;42691;47.234;27.494;2022-09-09T04:40:29;15.30;;;8.52;;
56810;SDS011;42691;47.234;27.494;2022-09-09T04:42:57;16.52;;;7.00;;
56810;SDS011;42691;47.234;27.494;2022-09-09T04:45:23;10.50;;;6.43;;
56810;SDS011;42691;47.234;27.494;2022-09-09T04:47:48;13.32;;;6.30;;
56810;SDS011;42691;47.234;27.494;2022-09-09T04:50:14;15.95;;;7.43;;
56810;SDS011;42691;47.234;27.494;2022-09-09T04:52:40;11.25;;;7.30;;
56810;SDS011;42691;47.234;27.494;2022-09-09T04:55:06;14.32;;;9.20;;
56810;SDS011;42691;47.234;27.494;2022-09-09T04:57:34;15.70;;;8.40;;
56810;SDS011;42691;47.234;27.494;2022-09-09T04:59:59;17.08;;;8.00;;
56810;SDS011;42691;47.234;27.494;2022-09-09T05:02:25;16.15;;;7.80;;
56810;SDS011;42691;47.234;27.494;2022-09-09T05:04:51;12.43;;;7.13;;
56810;SDS011;42691;47.234;27.494;2022-09-09T05:07:17;10.05;;;7.65;;
56810;SDS011;42691;47.234;27.494;2022-09-09T05:09:42;11.45;;;7.00;;
56810;SDS011;42691;47.234;27.494;2022-09-09T05:12:08;13.25;;;8.70;;
56810;SDS011;42691;47.234;27.494;2022-09-09T05:14:33;17.00;;;8.20;;
56810;SDS011;42691;47.234;27.494;2022-09-09T05:17:02;15.52;;;8.30;;
56810;SDS011;42691;47.234;27.494;2022-09-09T05:19:28;18.63;;;7.85;;
56810;SDS011;42691;47.234;27.494;2022-09-09T05:21:53;15.05;;;7.63;;
56810;SDS011;42691;47.234;27.494;2022-09-09T05:24:18;17.45;;;8.63;;
56810;SDS011;42691;47.234;27.494;2022-09-09T05:26:44;12.35;;;7.18;;
56810;SDS011;42691;47.234;27.494;2022-09-09T05:29:09;17.80;;;9.32;;
56810;SDS011;42691;47.234;27.494;2022-09-09T05:31:35;13.45;;;8.13;;
56810;SDS011;42691;47.234;27.494;2022-09-09T05:34:00;11.35;;;6.57;;
56810;SDS011;42691;47.234;27.494;2022-09-09T05:36:26;10.07;;;6.47;;
56810;SDS011;42691;47.234;27.494;2022-09-09T05:38:52;12.93;;;5.93;;
56810;SDS011;42691;47.234;27.494;2022-09-09T05:41:20;8.05;;;5.78;;
56810;SDS011;42691;47.234;27.494;2022-09-09T05:43:48;11.45;;;6.45;;
56810;SDS011;42691;47.234;27.494;2022-09-09T05:46:14;8.38;;;5.60;;
56810;SDS011;42691;47.234;27.494;2022-09-09T05:48:45;14.75;;;6.38;;
56810;SDS011;42691;47.234;27.494;2022-09-09T05:51:13;10.60;;;5.47;;
56810;SDS011;42691;47.234;27.494;2022-09-09T05:53:43;20.85;;;11.38;;
56810;SDS011;42691;47.234;27.494;2022-09-09T05:56:11;21.17;;;14.90;;
56810;SDS011;42691;47.234;27.494;2022-09-09T05:58:39;12.88;;;9.27;;
56810;SDS011;42691;47.234;27.494;2022-09-09T06:01:06;23.67;;;16.83;;
56810;SDS011;42691;47.234;27.494;2022-09-09T06:03:37;12.98;;;9.35;;
56810;SDS011;42691;47.234;27.494;2022-09-09T06:06:04;13.65;;;7.10;;
56810;SDS011;42691;47.234;27.494;2022-09-09T06:08:36;11.73;;;6.63;;
56810;SDS011;42691;47.234;27.494;2022-09-09T06:11:04;17.08;;;8.10;;
56810;SDS011;42691;47.234;27.494;2022-09-09T06:13:34;11.38;;;6.35;;
56810;SDS011;42691;47.234;27.494;2022-09-09T06:16:02;10.15;;;6.30;;
56810;SDS011;42691;47.234;27.494;2022-09-09T06:18:28;18.35;;;10.45;;
56810;SDS011;42691;47.234;27.494;2022-09-09T06:20:58;11.27;;;6.22;;
56810;SDS011;42691;47.234;27.494;2022-09-09T06:23:25;12.13;;;7.18;;
56810;SDS011;42691;47.234;27.494;2022-09-09T06:25:52;11.80;;;7.93;;
56810;SDS011;42691;47.234;27.494;2022-09-09T06:28:45;10.40;;;5.10;;
56810;SDS011;42691;47.234;27.494;2022-09-09T06:31:13;11.18;;;5.65;;
56810;SDS011;42691;47.234;27.494;2022-09-09T06:33:42;11.25;;;6.18;;
56810;SDS011;42691;47.234;27.494;2022-09-09T06:36:15;11.38;;;6.43;;
56810;SDS011;42691;47.234;27.494;2022-09-09T06:38:45;12.07;;;6.28;;
56810;SDS011;42691;47.234;27.494;2022-09-09T06:41:12;15.75;;;7.78;;
56810;SDS011;42691;47.234;27.494;2022-09-09T06:43:39;15.98;;;9.18;;
56810;SDS011;42691;47.234;27.494;2022-09-09T06:46:12;15.63;;;8.43;;
56810;SDS011;42691;47.234;27.494;2022-09-09T06:48:39;10.43;;;7.35;;
56810;SDS011;42691;47.234;27.494;2022-09-09T06:51:13;14.70;;;8.38;;
56810;SDS011;42691;47.234;27.494;2022-09-09T06:53:41;15.35;;;9.70;;
56810;SDS011;42691;47.234;27.494;2022-09-09T06:58:39;10.90;;;7.30;;
56810;SDS011;42691;47.234;27.494;2022-09-09T07:01:12;8.73;;;5.88;;
56810;SDS011;42691;47.234;27.494;2022-09-09T07:03:40;11.85;;;7.60;;
56810;SDS011;42691;47.234;27.494;2022-09-09T07:06:08;13.15;;;7.47;;
56810;SDS011;42691;47.234;27.494;2022-09-09T07:08:39;11.77;;;7.03;;
56810;SDS011;42691;47.234;27.494;2022-09-09T07:11:06;12.90;;;6.65;;
56810;SDS011;42691;47.234;27.494;2022-09-09T07:13:32;12.77;;;5.68;;
56810;SDS011;42691;47.234;27.494;2022-09-09T07:16:09;8.10;;;4.78;;
56810;SDS011;42691;47.234;27.494;2022-09-09T07:18:35;10.38;;;5.53;;
56810;SDS011;42691;47.234;27.494;2022-09-09T07:21:02;10.50;;;5.38;;
56810;SDS011;42691;47.234;27.494;2022-09-09T07:23:28;16.13;;;5.38;;
56810;SDS011;42691;47.234;27.494;2022-09-09T07:25:55;13.05;;;6.40;;
56810;SDS011;42691;47.234;27.494;2022-09-09T07:28:21;11.38;;;5.70;;
56810;SDS011;42691;47.234;27.494;2022-09-09T07:30:58;11.45;;;5.00;;
56810;SDS011;42691;47.234;27.494;2022-09-09T07:33:27;7.72;;;5.35;;
56810;SDS011;42691;47.234;27.494;2022-09-09T07:36:01;15.93;;;6.57;;
56810;SDS011;42691;47.234;27.494;2022-09-09T07:38:28;12.07;;;5.72;;
56810;SDS011;42691;47.234;27.494;2022-09-09T07:41:01;14.13;;;9.90;;
56810;SDS011;42691;47.234;27.494;2022-09-09T07:43:31;12.65;;;6.50;;
56810;SDS011;42691;47.234;27.494;2022-09-09T07:45:58;15.30;;;7.10;;
56810;SDS011;42691;47.234;27.494;2022-09-09T07:48:26;19.10;;;6.78;;
56810;SDS011;42691;47.234;27.494;2022-09-09T07:50:52;13.10;;;7.10;;
56810;SDS011;42691;47.234;27.494;2022-09-09T07:53:18;10.02;;;6.18;;
56810;SDS011;42691;47.234;27.494;2022-09-09T07:55:44;15.68;;;6.60;;
56810;SDS011;42691;47.234;27.494;2022-09-09T07:58:10;11.18;;;5.90;;
56810;SDS011;42691;47.234;27.494;2022-09-09T08:00:35;10.00;;;5.18;;
56810;SDS011;42691;47.234;27.494;2022-09-09T08:03:01;11.07;;;5.43;;
56810;SDS011;42691;47.234;27.494;2022-09-09T08:05:27;10.35;;;5.30;;
56810;SDS011;42691;47.234;27.494;2022-09-09T08:07:53;12.43;;;6.28;;
56810;SDS011;42691;47.234;27.494;2022-09-09T08:10:18;10.45;;;5.38;;
56810;SDS011;42691;47.234;27.494;2022-09-09T08:12:44;8.02;;;5.30;;
56810;SDS011;42691;47.234;27.494;2022-09-09T08:15:10;13.75;;;5.82;;
56810;SDS011;42691;47.234;27.494;2022-09-09T08:17:36;10.07;;;6.35;;
56810;SDS011;42691;47.234;27.494;2022-09-09T08:20:03;8.63;;;5.18;;
56810;SDS011;42691;47.234;27.494;2022-09-09T08:22:31;10.05;;;5.85;;
56810;SDS011;42691;47.234;27.494;2022-09-09T08:24:56;15.65;;;6.00;;
56810;SDS011;42691;47.234;27.494;2022-09-09T08:27:22;13.05;;;4.95;;
56810;SDS011;42691;47.234;27.494;2022-09-09T08:29:47;16.92;;;7.45;;
56810;SDS011;42691;47.234;27.494;2022-09-09T08:32:13;9.77;;;5.75;;
56810;SDS011;42691;47.234;27.494;2022-09-09T08:34:38;12.07;;;5.97;;
56810;SDS011;42691;47.234;27.494;2022-09-09T08:37:06;5.93;;;4.88;;
56810;SDS011;42691;47.234;27.494;2022-09-09T08:39:31;7.05;;;4.25;;
56810;SDS011;42691;47.234;27.494;2022-09-09T08:50:35;9.80;;;5.13;;
56810;SDS011;42691;47.234;27.494;2022-09-09T08:53:22;16.10;;;5.53;;
56810;SDS011;42691;47.234;27.494;2022-09-09T08:55:59;8.45;;;5.45;;
56810;SDS011;42691;47.234;27.494;2022-09-09T08:58:29;6.35;;;4.25;;
56810;SDS011;42691;47.234;27.494;2022-09-09T09:01:00;10.45;;;6.50;;
56810;SDS011;42691;47.234;27.494;2022-09-09T09:08:51;9.98;;;5.03;;
56810;SDS011;42691;47.234;27.494;2022-09-09T09:11:37;8.55;;;6.25;;
56810;SDS011;42691;47.234;27.494;2022-09-09T09:14:09;9.45;;;6.32;;
56810;SDS011;42691;47.234;27.494;2022-09-09T09:16:42;9.15;;;5.80;;
56810;SDS011;42691;47.234;27.494;2022-09-09T09:19:13;9.00;;;6.03;;
56810;SDS011;42691;47.234;27.494;2022-09-09T09:21:45;8.70;;;5.35;;
56810;SDS011;42691;47.234;27.494;2022-09-09T09:24:19;7.65;;;4.90;;
56810;SDS011;42691;47.234;27.494;2022-09-09T09:26:47;12.25;;;6.35;;
56810;SDS011;42691;47.234;27.494;2022-09-09T09:29:17;8.90;;;5.90;;
56810;SDS011;42691;47.234;27.494;2022-09-09T09:31:51;11.57;;;6.18;;
56810;SDS011;42691;47.234;27.494;2022-09-09T09:34:19;19.90;;;5.82;;
56810;SDS011;42691;47.234;27.494;2022-09-09T09:37:07;6.55;;;4.78;;
56810;SDS011;42691;47.234;27.494;2022-09-09T09:39:37;16.15;;;6.20;;
56810;SDS011;42691;47.234;27.494;2022-09-09T09:42:08;9.10;;;4.57;;
56810;SDS011;42691;47.234;27.494;2022-09-09T09:44:37;10.33;;;6.07;;
56810;SDS011;42691;47.234;27.494;2022-09-09T09:47:11;9.43;;;5.28;;
56810;SDS011;42691;47.234;27.494;2022-09-09T09:49:39;8.80;;;5.13;;
56810;SDS011;42691;47.234;27.494;2022-09-09T09:52:17;11.00;;;6.05;;
56810;SDS011;42691;47.234;27.494;2022-09-09T09:54:47;7.80;;;5.15;;
56810;SDS011;42691;47.234;27.494;2022-09-09T09:57:14;8.23;;;5.38;;
56810;SDS011;42691;47.234;27.494;2022-09-09T09:59:41;10.32;;;5.88;;
56810;SDS011;42691;47.234;27.494;2022-09-09T10:02:13;8.55;;;6.10;;
56810;SDS011;42691;47.234;27.494;2022-09-09T10:04:59;8.80;;;6.00;;
56810;SDS011;42691;47.234;27.494;2022-09-09T10:07:45;8.55;;;4.57;;
56810;SDS011;42691;47.234;27.494;2022-09-09T10:10:21;9.73;;;5.22;;
56810;SDS011;42691;47.234;27.494;2022-09-09T10:13:05;9.23;;;5.28;;
56810;SDS011;42691;47.234;27.494;2022-09-09T10:19:18;14.52;;;5.65;;
56810;SDS011;42691;47.234;27.494;2022-09-09T10:27:15;9.48;;;5.63;;
56810;SDS011;42691;47.234;27.494;2022-09-09T10:29:57;8.02;;;5.65;;
56810;SDS011;42691;47.234;27.494;2022-09-09T10:40:37;9.77;;;5.82;;
56810;SDS011;42691;47.234;27.494;2022-09-09T10:57:13;13.80;;;5.50;;
56810;SDS011;42691;47.234;27.494;2022-09-09T11:00:02;12.68;;;6.25;;
56810;SDS011;42691;47.234;27.494;2022-09-09T11:02:31;14.07;;;5.22;;
56810;SDS011;42691;47.234;27.494;2022-09-09T11:10:01;16.80;;;5.65;;
56810;SDS011;42691;47.234;27.494;2022-09-09T11:12:31;9.18;;;6.38;;
56810;SDS011;42691;47.234;27.494;2022-09-09T11:15:06;8.35;;;5.70;;
56810;SDS011;42691;47.234;27.494;2022-09-09T11:17:50;11.40;;;5.00;;
56810;SDS011;42691;47.234;27.494;2022-09-09T11:20:20;11.82;;;7.13;;
56810;SDS011;42691;47.234;27.494;2022-09-09T11:33:34;12.40;;;7.57;;
56810;SDS011;42691;47.234;27.494;2022-09-09T11:41:52;12.10;;;7.53;;
56810;SDS011;42691;47.234;27.494;2022-09-09T11:44:19;11.60;;;5.50;;
56810;SDS011;42691;47.234;27.494;2022-09-09T11:46:54;9.10;;;5.60;;
56810;SDS011;42691;47.234;27.494;2022-09-09T11:50:06;13.18;;;7.15;;
56810;SDS011;42691;47.234;27.494;2022-09-09T11:52:11;10.15;;;7.07;;
56810;SDS011;42691;47.234;27.494;2022-09-09T11:54:55;10.52;;;6.68;;
56810;SDS011;42691;47.234;27.494;2022-09-09T11:57:39;10.35;;;7.15;;
56810;SDS011;42691;47.234;27.494;2022-09-09T12:00:04;11.80;;;6.90;;
56810;SDS011;42691;47.234;27.494;2022-09-09T12:02:32;11.30;;;6.25;;
56810;SDS011;42691;47.234;27.494;2022-09-09T12:15:48;13.32;;;7.18;;
56810;SDS011;42691;47.234;27.494;2022-09-09T12:18:22;12.00;;;6.60;;
56810;SDS011;42691;47.234;27.494;2022-09-09T12:21:01;8.43;;;6.35;;
56810;SDS011;42691;47.234;27.494;2022-09-09T12:23:37;11.77;;;6.83;;
56810;SDS011;42691;47.234;27.494;2022-09-09T12:26:17;8.18;;;4.85;;
56810;SDS011;42691;47.234;27.494;2022-09-09T12:31:25;9.43;;;5.43;;
56810;SDS011;42691;47.234;27.494;2022-09-09T12:34:20;7.40;;;5.60;;
56810;SDS011;42691;47.234;27.494;2022-09-09T12:36:57;9.93;;;7.25;;
56810;SDS011;42691;47.234;27.494;2022-09-09T12:39:33;14.20;;;8.05;;
56810;SDS011;42691;47.234;27.494;2022-09-09T12:42:02;8.82;;;6.03;;
56810;SDS011;42691;47.234;27.494;2022-09-09T12:44:29;11.38;;;6.47;;
56810;SDS011;42691;47.234;27.494;2022-09-09T12:46:56;9.55;;;6.97;;
56810;SDS011;42691;47.234;27.494;2022-09-09T12:49:29;12.70;;;5.90;;
56810;SDS011;42691;47.234;27.494;2022-09-09T12:52:04;9.27;;;5.95;;
56810;SDS011;42691;47.234;27.494;2022-09-09T12:54:34;10.27;;;7.43;;
56810;SDS011;42691;47.234;27.494;2022-09-09T12:57:01;8.63;;;5.95;;
56810;SDS011;42691;47.234;27.494;2022-09-09T12:59:35;9.63;;;6.43;;
56810;SDS011;42691;47.234;27.494;2022-09-09T13:02:02;10.25;;;7.72;;
56810;SDS011;42691;47.234;27.494;2022-09-09T13:04:36;11.02;;;6.95;;
56810;SDS011;42691;47.234;27.494;2022-09-09T13:07:05;9.27;;;6.75;;
56810;SDS011;42691;47.234;27.494;2022-09-09T13:09:37;11.23;;;7.10;;
56810;SDS011;42691;47.234;27.494;2022-09-09T13:12:03;10.50;;;7.50;;
56810;SDS011;42691;47.234;27.494;2022-09-09T13:14:33;8.45;;;6.45;;
56810;SDS011;42691;47.234;27.494;2022-09-09T13:17:03;9.25;;;6.50;;
56810;SDS011;42691;47.234;27.494;2022-09-09T13:19:31;8.57;;;6.55;;
56810;SDS011;42691;47.234;27.494;2022-09-09T13:22:10;8.00;;;5.65;;
56810;SDS011;42691;47.234;27.494;2022-09-09T13:24:38;9.10;;;6.00;;
56810;SDS011;42691;47.234;27.494;2022-09-09T13:27:25;7.55;;;6.75;;
56810;SDS011;42691;47.234;27.494;2022-09-09T13:29:54;11.18;;;7.85;;
56810;SDS011;42691;47.234;27.494;2022-09-09T13:32:21;9.10;;;6.15;;
56810;SDS011;42691;47.234;27.494;2022-09-09T13:37:29;8.18;;;6.15;;
56810;SDS011;42691;47.234;27.494;2022-09-09T13:39:59;15.90;;;7.75;;
56810;SDS011;42691;47.234;27.494;2022-09-09T13:42:28;14.13;;;7.45;;
56810;SDS011;42691;47.234;27.494;2022-09-09T13:44:55;8.10;;;5.93;;
56810;SDS011;42691;47.234;27.494;2022-09-09T13:47:41;11.77;;;7.28;;
56810;SDS011;42691;47.234;27.494;2022-09-09T13:52:56;13.00;;;7.30;;
56810;SDS011;42691;47.234;27.494;2022-09-09T13:55:24;11.25;;;7.13;;
56810;SDS011;42691;47.234;27.494;2022-09-09T14:00:25;15.00;;;7.93;;
56810;SDS011;42691;47.234;27.494;2022-09-09T14:02:51;15.18;;;7.63;;
56810;SDS011;42691;47.234;27.494;2022-09-09T14:05:17;12.77;;;7.32;;
56810;SDS011;42691;47.234;27.494;2022-09-09T14:07:44;9.27;;;5.72;;
56810;SDS011;42691;47.234;27.494;2022-09-09T14:10:11;11.00;;;6.25;;
56810;SDS011;42691;47.234;27.494;2022-09-09T14:12:37;9.65;;;7.00;;
56810;SDS011;42691;47.234;27.494;2022-09-09T14:15:03;21.08;;;13.38;;
56810;SDS011;42691;47.234;27.494;2022-09-09T14:17:29;16.58;;;9.82;;
56810;SDS011;42691;47.234;27.494;2022-09-09T14:19:56;16.80;;;11.98;;
56810;SDS011;42691;47.234;27.494;2022-09-09T14:22:22;17.30;;;12.70;;
56810;SDS011;42691;47.234;27.494;2022-09-09T14:24:48;13.48;;;11.00;;
56810;SDS011;42691;47.234;27.494;2022-09-09T14:27:14;16.85;;;8.38;;
56810;SDS011;42691;47.234;27.494;2022-09-09T14:29:40;12.48;;;11.15;;
56810;SDS011;42691;47.234;27.494;2022-09-09T14:32:06;13.48;;;11.00;;
56810;SDS011;42691;47.234;27.494;2022-09-09T14:34:31;13.85;;;10.10;;
56810;SDS011;42691;47.234;27.494;2022-09-09T14:36:57;15.57;;;12.77;;
56810;SDS011;42691;47.234;27.494;2022-09-09T14:39:23;16.67;;;12.45;;
56810;SDS011;42691;47.234;27.494;2022-09-09T14:41:49;25.13;;;17.20;;
56810;SDS011;42691;47.234;27.494;2022-09-09T14:44:14;21.55;;;13.98;;
56810;SDS011;42691;47.234;27.494;2022-09-09T14:46:41;23.42;;;16.38;;
56810;SDS011;42691;47.234;27.494;2022-09-09T14:49:08;14.15;;;11.60;;
56810;SDS011;42691;47.234;27.494;2022-09-09T14:51:35;22.17;;;14.52;;
56810;SDS011;42691;47.234;27.494;2022-09-09T14:54:01;19.08;;;13.48;;
56810;SDS011;42691;47.234;27.494;2022-09-09T14:56:28;15.20;;;11.95;;
56810;SDS011;42691;47.234;27.494;2022-09-09T14:58:55;19.10;;;14.15;;
56810;SDS011;42691;47.234;27.494;2022-09-09T15:01:21;16.08;;;12.02;;
56810;SDS011;42691;47.234;27.494;2022-09-09T15:03:57;13.50;;;10.07;;
56810;SDS011;42691;47.234;27.494;2022-09-09T15:06:29;17.23;;;12.05;;
56810;SDS011;42691;47.234;27.494;2022-09-09T15:08:58;18.58;;;12.38;;
56810;SDS011;42691;47.234;27.494;2022-09-09T15:11:25;16.75;;;10.65;;
56810;SDS011;42691;47.234;27.494;2022-09-09T15:13:53;15.18;;;11.25;;
56810;SDS011;42691;47.234;27.494;2022-09-09T15:16:19;16.50;;;11.93;;
56810;SDS011;42691;47.234;27.494;2022-09-09T15:18:49;19.63;;;11.23;;
56810;SDS011;42691;47.234;27.494;2022-09-09T15:21:17;17.05;;;10.13;;
56810;SDS011;42691;47.234;27.494;2022-09-09T15:23:45;17.67;;;12.90;;
56810;SDS011;42691;47.234;27.494;2022-09-09T15:26:11;34.50;;;12.68;;
56810;SDS011;42691;47.234;27.494;2022-09-09T15:28:39;14.98;;;11.80;;
56810;SDS011;42691;47.234;27.494;2022-09-09T15:31:07;18.13;;;12.23;;
56810;SDS011;42691;47.234;27.494;2022-09-09T15:34:00;20.98;;;12.10;;
56810;SDS011;42691;47.234;27.494;2022-09-09T15:38:53;22.23;;;13.30;;
56810;SDS011;42691;47.234;27.494;2022-09-09T15:41:20;16.88;;;10.65;;
56810;SDS011;42691;47.234;27.494;2022-09-09T15:43:47;16.85;;;12.90;;
56810;SDS011;42691;47.234;27.494;2022-09-09T15:46:37;18.00;;;11.95;;
56810;SDS011;42691;47.234;27.494;2022-09-09T15:49:06;19.45;;;12.00;;
56810;SDS011;42691;47.234;27.494;2022-09-09T15:54:04;17.70;;;12.93;;
56810;SDS011;42691;47.234;27.494;2022-09-09T15:56:30;16.20;;;12.82;;
56810;SDS011;42691;47.234;27.494;2022-09-09T15:58:57;13.15;;;11.32;;
56810;SDS011;42691;47.234;27.494;2022-09-09T16:01:30;19.38;;;13.57;;
56810;SDS011;42691;47.234;27.494;2022-09-09T16:03:56;22.63;;;13.60;;
56810;SDS011;42691;47.234;27.494;2022-09-09T16:06:23;17.23;;;13.10;;
56810;SDS011;42691;47.234;27.494;2022-09-09T16:08:51;18.02;;;14.68;;
56810;SDS011;42691;47.234;27.494;2022-09-09T16:11:21;16.63;;;12.23;;
56810;SDS011;42691;47.234;27.494;2022-09-09T16:13:49;20.85;;;16.67;;
56810;SDS011;42691;47.234;27.494;2022-09-09T16:16:17;18.10;;;13.05;;
56810;SDS011;42691;47.234;27.494;2022-09-09T16:18:48;16.52;;;12.63;;
56810;SDS011;42691;47.234;27.494;2022-09-09T16:21:17;26.67;;;15.93;;
56810;SDS011;42691;47.234;27.494;2022-09-09T16:23:45;16.60;;;13.68;;
56810;SDS011;42691;47.234;27.494;2022-09-09T16:26:12;16.92;;;14.90;;
56810;SDS011;42691;47.234;27.494;2022-09-09T16:28:40;16.05;;;13.05;;
56810;SDS011;42691;47.234;27.494;2022-09-09T16:31:06;23.05;;;17.63;;
56810;SDS011;42691;47.234;27.494;2022-09-09T16:33:33;21.25;;;14.45;;
56810;SDS011;42691;47.234;27.494;2022-09-09T16:36:04;22.40;;;14.90;;
56810;SDS011;42691;47.234;27.494;2022-09-09T16:38:33;21.85;;;15.23;;
56810;SDS011;42691;47.234;27.494;2022-09-09T16:41:00;26.42;;;20.05;;
56810;SDS011;42691;47.234;27.494;2022-09-09T16:43:26;17.55;;;13.27;;
56810;SDS011;42691;47.234;27.494;2022-09-09T16:45:52;18.42;;;15.48;;
56810;SDS011;42691;47.234;27.494;2022-09-09T16:48:17;18.95;;;15.95;;
56810;SDS011;42691;47.234;27.494;2022-09-09T16:50:43;22.67;;;14.63;;
56810;SDS011;42691;47.234;27.494;2022-09-09T16:53:09;20.85;;;14.85;;
56810;SDS011;42691;47.234;27.494;2022-09-09T16:55:38;35.72;;;17.35;;
56810;SDS011;42691;47.234;27.494;2022-09-09T16:58:04;46.97;;;21.17;;
56810;SDS011;42691;47.234;27.494;2022-09-09T17:00:30;35.22;;;19.50;;
56810;SDS011;42691;47.234;27.494;2022-09-09T17:02:55;23.60;;;16.52;;
56810;SDS011;42691;47.234;27.494;2022-09-09T17:05:21;35.80;;;19.17;;
56810;SDS011;42691;47.234;27.494;2022-09-09T17:07:46;35.95;;;16.75;;
56810;SDS011;42691;47.234;27.494;2022-09-09T17:10:12;24.55;;;19.98;;